Time;durP1;ratioP1;P1;durP2;ratioP2;P2;SDS_P1;SDS_P2;PMS_P1;PMS_P2;Temp;Humidity;BMP_temperature;BMP_pressure;BME280_temperature;BME280_humidity;BME280_pressure;Samples;Min_cycle;Max_cycle;Signal;HPM_P1;HPM_P2
2023/11/13 00:00:18;;;;;;;3.78;1.63;;;9.80;99.90;;;;;;10101899;28;20028;-64
2023/11/13 00:05:10;;;;;;;7.63;2.10;;;9.80;99.90;;;;;;10102329;28;20052;-66
2023/11/13 00:10:01;;;;;;;4.38;3.78;;;9.90;99.90;;;;;;10100881;28;20498;-66
2023/11/13 00:14:52;;;;;;;6.20;2.38;;;9.90;99.90;;;;;;10098326;28;20510;-64
2023/11/13 00:19:47;;;;;;;3.35;1.85;;;10.00;99.90;;;;;;10101006;28;20104;-63
2023/11/13 00:24:37;;;;;;;3.47;1.83;;;10.00;99.90;;;;;;10101659;28;20394;-63
2023/11/13 00:29:28;;;;;;;3.72;1.63;;;10.00;99.90;;;;;;10110565;28;20027;-63
2023/11/13 00:34:18;;;;;;;5.28;1.95;;;10.00;99.90;;;;;;10099627;28;20053;-63
2023/11/13 00:39:10;;;;;;;2.67;1.48;;;10.10;99.90;;;;;;10100648;28;20021;-64
2023/11/13 00:44:02;;;;;;;3.58;1.70;;;10.10;99.90;;;;;;10100691;28;20029;-65
2023/11/13 00:48:54;;;;;;;4.97;1.40;;;10.10;99.90;;;;;;10100244;28;20059;-64
2023/11/13 00:53:44;;;;;;;2.80;1.42;;;10.20;99.90;;;;;;10099840;28;20041;-67
2023/11/13 00:58:36;;;;;;;2.67;1.98;;;10.30;99.90;;;;;;10100225;28;20028;-65
2023/11/13 01:03:27;;;;;;;3.65;1.13;;;10.30;99.90;;;;;;10099474;28;20064;-65
2023/11/13 01:08:18;;;;;;;1.90;1.17;;;10.30;99.90;;;;;;10099496;28;20025;-64
2023/11/13 01:13:09;;;;;;;2.60;1.77;;;10.40;99.90;;;;;;10081096;28;20072;-64
2023/11/13 01:18:00;;;;;;;1.58;1.20;;;10.40;99.90;;;;;;10097066;28;20024;-64
2023/11/13 01:22:50;;;;;;;4.80;1.23;;;10.40;99.90;;;;;;10098407;28;20050;-65
2023/11/13 01:27:41;;;;;;;0.85;0.63;;;10.50;99.90;;;;;;10098843;28;20502;-66
2023/11/13 01:32:31;;;;;;;0.95;0.60;;;10.50;99.90;;;;;;10079658;28;20025;-65
2023/11/13 01:37:23;;;;;;;0.63;0.60;;;10.50;99.90;;;;;;10098617;28;20051;-65
2023/11/13 01:42:13;;;;;;;1.05;0.65;;;10.60;99.90;;;;;;10098215;28;20029;-68
2023/11/13 01:47:05;;;;;;;1.58;0.65;;;10.70;99.90;;;;;;10097996;28;20033;-65
2023/11/13 01:51:55;;;;;;;2.58;0.50;;;10.70;99.90;;;;;;10090048;28;20601;-68
2023/11/13 01:56:47;;;;;;;0.88;0.55;;;10.70;99.90;;;;;;10098117;28;20108;-65
2023/11/13 02:01:39;;;;;;;0.93;0.65;;;10.80;99.90;;;;;;10097071;28;20017;-64
2023/11/13 02:06:31;;;;;;;1.85;0.60;;;10.80;99.90;;;;;;10097163;28;20032;-66
2023/11/13 02:11:22;;;;;;;0.82;0.52;;;10.80;99.90;;;;;;10097403;28;20018;-63
2023/11/13 02:16:13;;;;;;;2.05;1.20;;;10.80;99.90;;;;;;10092620;28;20049;-64
2023/11/13 02:21:04;;;;;;;1.05;0.52;;;10.90;99.90;;;;;;10096665;28;20029;-64
2023/11/13 02:25:55;;;;;;;1.45;0.80;;;10.80;99.90;;;;;;10096883;28;20025;-64
2023/11/13 02:30:46;;;;;;;1.52;0.70;;;10.90;99.90;;;;;;10096504;28;20025;-63
2023/11/13 02:35:37;;;;;;;1.55;0.52;;;10.90;99.90;;;;;;10080090;28;20057;-63
2023/11/13 02:40:27;;;;;;;0.25;0.25;;;10.90;99.90;;;;;;10096210;28;20078;-66
2023/11/13 02:45:18;;;;;;;0.70;0.50;;;11.00;99.90;;;;;;10096313;28;20040;-65
2023/11/13 02:50:12;;;;;;;2.38;1.13;;;11.00;99.90;;;;;;10095321;28;20019;-65
2023/11/13 02:55:03;;;;;;;1.55;0.40;;;11.00;99.90;;;;;;10095874;28;20044;-63
2023/11/13 02:59:53;;;;;;;1.85;0.85;;;11.10;99.90;;;;;;10095266;28;20384;-64
2023/11/13 03:04:44;;;;;;;1.35;0.82;;;11.10;99.90;;;;;;10096029;28;20039;-65
2023/11/13 03:09:35;;;;;;;1.45;0.57;;;11.20;99.90;;;;;;10085855;28;20508;-64
2023/11/13 03:14:26;;;;;;;2.08;0.70;;;11.20;99.90;;;;;;10093999;28;20111;-67
2023/11/13 03:19:16;;;;;;;4.97;1.63;;;11.10;99.90;;;;;;10096934;28;20032;-68
2023/11/13 03:24:07;;;;;;;2.50;0.95;;;11.10;99.90;;;;;;10088264;28;20120;-67
2023/11/13 03:28:58;;;;;;;1.35;0.60;;;11.10;99.90;;;;;;10084805;28;20117;-64
2023/11/13 03:33:49;;;;;;;2.17;0.88;;;11.10;99.90;;;;;;10094872;28;20523;-64
2023/11/13 03:38:39;;;;;;;5.07;1.30;;;11.10;99.90;;;;;;10095536;28;20021;-65
2023/11/13 03:43:30;;;;;;;3.83;1.10;;;11.10;99.90;;;;;;10094939;28;20649;-66
2023/11/13 03:48:21;;;;;;;4.63;1.42;;;11.10;99.90;;;;;;10094717;28;20078;-64
2023/11/13 03:53:11;;;;;;;5.78;2.67;;;11.20;99.90;;;;;;10094217;28;20071;-65
2023/11/13 03:58:02;;;;;;;3.65;1.20;;;11.20;99.90;;;;;;10098739;28;20421;-65
2023/11/13 04:02:53;;;;;;;3.72;1.00;;;11.20;99.90;;;;;;10101715;28;20037;-65
2023/11/13 04:07:44;;;;;;;1.80;1.00;;;11.20;99.90;;;;;;10102153;28;20021;-69
2023/11/13 04:12:34;;;;;;;5.80;1.42;;;11.20;99.90;;;;;;10102127;28;20119;-63
2023/11/13 04:17:25;;;;;;;4.15;1.30;;;11.20;99.90;;;;;;10097989;28;20028;-64
2023/11/13 04:22:16;;;;;;;3.70;1.15;;;11.20;99.90;;;;;;10101168;28;20033;-63
2023/11/13 04:27:06;;;;;;;3.03;1.20;;;11.30;99.90;;;;;;10100565;28;20083;-64
2023/11/13 04:31:58;;;;;;;6.15;1.30;;;11.20;99.90;;;;;;10100496;28;20767;-63
2023/11/13 04:36:49;;;;;;;4.15;1.45;;;11.30;99.90;;;;;;10100907;28;20045;-64
2023/11/13 04:41:40;;;;;;;4.03;1.40;;;11.20;99.90;;;;;;10101151;28;20111;-64
2023/11/13 04:46:30;;;;;;;2.45;1.40;;;11.30;99.90;;;;;;10101280;28;20115;-64
2023/11/13 04:51:21;;;;;;;4.13;2.42;;;11.40;99.90;;;;;;10099334;28;20178;-63
2023/11/13 04:56:11;;;;;;;5.30;1.65;;;11.40;99.90;;;;;;10099797;28;20091;-64
2023/11/13 05:01:02;;;;;;;2.33;1.15;;;11.40;99.90;;;;;;10099996;28;20502;-63
2023/11/13 05:05:53;;;;;;;3.88;1.63;;;11.40;99.90;;;;;;10098880;28;20028;-64
2023/11/13 05:10:43;;;;;;;4.68;1.58;;;11.40;99.90;;;;;;10098969;28;20024;-63
2023/11/13 05:15:34;;;;;;;4.38;1.30;;;11.40;99.90;;;;;;10098204;28;20610;-64
2023/11/13 05:20:25;;;;;;;4.25;1.40;;;11.50;99.90;;;;;;10099020;28;20025;-66
2023/11/13 05:25:15;;;;;;;3.33;1.20;;;11.50;99.90;;;;;;10094648;28;20036;-63
2023/11/13 05:30:07;;;;;;;5.47;1.65;;;11.50;99.90;;;;;;10097244;28;20590;-63
2023/11/13 05:34:58;;;;;;;4.50;1.38;;;11.50;99.90;;;;;;10094558;28;20087;-63
2023/11/13 05:39:50;;;;;;;3.90;1.40;;;11.50;99.90;;;;;;10096775;28;20360;-64
2023/11/13 05:44:40;;;;;;;11.30;1.33;;;11.60;99.90;;;;;;10098646;28;20049;-64
2023/11/13 05:49:31;;;;;;;3.35;1.50;;;11.50;99.90;;;;;;10097321;28;20029;-63
2023/11/13 05:54:22;;;;;;;4.60;1.70;;;11.50;99.90;;;;;;10097814;28;20406;-64
2023/11/13 05:59:14;;;;;;;9.77;1.48;;;11.60;99.90;;;;;;10096785;28;20028;-64
2023/11/13 06:04:05;;;;;;;3.47;1.70;;;11.60;99.90;;;;;;10093342;28;20155;-63
2023/11/13 06:08:56;;;;;;;5.10;1.70;;;11.60;99.90;;;;;;10097310;28;20379;-63
2023/11/13 06:13:47;;;;;;;7.70;1.90;;;11.50;99.90;;;;;;10097087;28;20036;-64
2023/11/13 06:18:49;;;;;;;6.80;1.52;;;11.60;99.90;;;;;;10097597;28;20036;-64
2023/11/13 06:23:42;;;;;;;3.10;1.38;;;11.50;99.90;;;;;;10096701;28;20049;-63
2023/11/13 06:28:33;;;;;;;2.67;1.40;;;11.60;99.90;;;;;;10078569;28;20032;-64
2023/11/13 06:33:23;;;;;;;4.70;1.10;;;11.60;99.90;;;;;;10096382;28;20518;-63
2023/11/13 06:38:15;;;;;;;7.22;1.35;;;11.60;99.90;;;;;;10095987;28;20505;-63
2023/11/13 06:43:07;;;;;;;6.45;1.20;;;11.50;99.90;;;;;;10093165;28;20047;-65
2023/11/13 06:47:58;;;;;;;3.05;0.82;;;11.50;99.90;;;;;;10093653;28;20037;-64
2023/11/13 06:52:50;;;;;;;5.00;1.23;;;11.50;99.90;;;;;;10092120;28;20070;-64
2023/11/13 06:57:41;;;;;;;4.72;1.60;;;11.50;99.90;;;;;;10093884;28;20037;-64
2023/11/13 07:02:32;;;;;;;4.10;1.20;;;11.50;99.90;;;;;;10095060;28;20028;-66
2023/11/13 07:07:23;;;;;;;5.03;1.48;;;11.60;99.90;;;;;;10095102;28;20025;-63
2023/11/13 07:12:14;;;;;;;5.97;1.67;;;11.60;99.90;;;;;;10094453;28;20063;-65
2023/11/13 07:17:05;;;;;;;5.35;1.60;;;11.60;99.90;;;;;;10089763;28;20029;-64
2023/11/13 07:21:56;;;;;;;2.70;1.05;;;11.60;99.90;;;;;;10089159;28;20116;-65
2023/11/13 07:26:46;;;;;;;4.28;1.58;;;11.60;99.90;;;;;;10087816;28;20131;-65
2023/11/13 07:31:38;;;;;;;1.63;1.10;;;11.60;99.90;;;;;;10095587;28;20037;-64
2023/11/13 07:36:31;;;;;;;1.92;0.93;;;11.70;99.90;;;;;;10098239;28;20361;-65
2023/11/13 07:41:21;;;;;;;8.00;1.33;;;11.80;99.90;;;;;;10101288;28;20029;-65
2023/11/13 07:46:12;;;;;;;2.40;1.05;;;11.80;99.90;;;;;;10101909;28;20041;-64
2023/11/13 07:51:04;;;;;;;2.55;0.95;;;11.80;99.90;;;;;;10082263;28;20025;-64
2023/11/13 07:55:55;;;;;;;5.07;1.15;;;11.90;99.90;;;;;;10101459;28;20040;-64
2023/11/13 08:00:46;;;;;;;1.30;0.73;;;12.00;99.90;;;;;;10098720;28;20386;-63
2023/11/13 08:05:37;;;;;;;2.20;0.82;;;12.00;99.90;;;;;;10101191;28;20032;-64
2023/11/13 08:10:28;;;;;;;2.42;0.90;;;12.00;99.90;;;;;;10100672;28;20108;-64
2023/11/13 08:15:18;;;;;;;1.17;0.57;;;12.10;99.90;;;;;;10100493;28;20032;-63
2023/11/13 08:20:14;;;;;;;1.30;0.65;;;12.10;99.90;;;;;;10101679;28;20426;-67
2023/11/13 08:25:05;;;;;;;4.33;1.53;;;12.20;99.90;;;;;;10099106;28;20505;-64
2023/11/13 08:29:57;;;;;;;2.15;0.52;;;12.20;99.90;;;;;;10100310;28;20021;-66
2023/11/13 08:34:47;;;;;;;0.85;0.63;;;12.20;99.90;;;;;;10100242;28;20051;-65
2023/11/13 08:39:38;;;;;;;0.90;0.63;;;12.30;99.90;;;;;;10099416;28;20013;-64
2023/11/13 08:44:29;;;;;;;1.50;0.73;;;12.30;99.90;;;;;;10097623;28;20340;-65
2023/11/13 08:49:21;;;;;;;1.80;0.65;;;12.30;99.90;;;;;;10096048;28;20032;-65
2023/11/13 08:54:13;;;;;;;3.08;0.68;;;12.40;99.90;;;;;;10099334;28;20037;-64
2023/11/13 08:59:03;;;;;;;1.63;0.68;;;12.40;99.90;;;;;;10099429;28;20394;-64
2023/11/13 09:03:54;;;;;;;1.45;0.70;;;12.40;99.90;;;;;;10098141;28;20035;-64
2023/11/13 09:08:48;;;;;;;1.40;0.73;;;12.40;99.90;;;;;;10098483;28;20505;-64
2023/11/13 09:13:38;;;;;;;1.70;0.70;;;12.50;99.90;;;;;;10100408;28;20037;-63
2023/11/13 09:18:29;;;;;;;1.77;0.85;;;12.40;99.90;;;;;;10092851;28;20026;-63
2023/11/13 09:23:23;;;;;;;6.95;1.40;;;12.50;99.90;;;;;;10097920;28;20021;-69
2023/11/13 09:28:14;;;;;;;1.92;0.70;;;12.50;99.90;;;;;;10095716;28;20025;-65
2023/11/13 09:33:06;;;;;;;2.45;0.80;;;12.50;99.90;;;;;;10093943;28;20052;-68
2023/11/13 09:37:58;;;;;;;1.73;0.90;;;12.60;99.90;;;;;;10098384;28;20025;-67
2023/11/13 09:42:53;;;;;;;8.35;1.60;;;12.60;99.90;;;;;;10095412;28;20032;-65
2023/11/13 09:47:45;;;;;;;1.17;0.82;;;12.70;99.90;;;;;;10095122;28;20021;-63
2023/11/13 09:52:36;;;;;;;2.55;0.93;;;12.80;99.90;;;;;;10092826;28;20502;-64
2023/11/13 09:57:26;;;;;;;1.98;0.80;;;12.80;99.90;;;;;;10095463;28;20409;-64
2023/11/13 10:02:20;;;;;;;1.67;1.05;;;12.90;99.90;;;;;;10097319;28;20104;-63
2023/11/13 10:07:12;;;;;;;1.67;0.82;;;12.90;99.90;;;;;;10096486;28;20021;-63
2023/11/13 10:12:02;;;;;;;2.80;1.55;;;13.00;99.90;;;;;;10096029;28;20024;-67
2023/11/13 10:16:56;;;;;;;2.22;1.17;;;13.10;99.90;;;;;;10090636;28;20410;-65
2023/11/13 10:21:47;;;;;;;2.83;1.30;;;13.10;99.90;;;;;;10095494;28;20021;-65
2023/11/13 10:26:38;;;;;;;3.03;1.50;;;13.10;99.90;;;;;;10095520;28;20036;-62
2023/11/13 10:31:44;;;;;;;4.28;1.20;;;13.10;99.90;;;;;;10095415;28;20033;-64
2023/11/13 10:36:35;;;;;;;4.53;1.42;;;13.10;99.90;;;;;;10095559;28;20059;-62
2023/11/13 10:41:32;;;;;;;4.57;1.10;;;13.20;99.90;;;;;;10095005;28;20104;-62
2023/11/13 10:46:27;;;;;;;1.40;1.10;;;13.20;99.90;;;;;;10095173;28;20206;-63
2023/11/13 10:51:18;;;;;;;3.42;1.80;;;13.30;99.90;;;;;;10093563;28;20515;-63
2023/11/13 10:56:10;;;;;;;2.95;1.35;;;13.30;99.90;;;;;;10074523;28;20041;-63
2023/11/13 11:01:05;;;;;;;2.85;1.67;;;13.30;99.90;;;;;;10094294;28;20476;-61
2023/11/13 11:05:56;;;;;;;2.37;1.10;;;13.30;99.90;;;;;;10077898;28;20466;-64
2023/11/13 11:10:48;;;;;;;3.58;0.90;;;13.40;99.90;;;;;;10103219;28;20552;-65
2023/11/13 11:15:56;;;;;;;5.93;1.20;;;13.40;99.90;;;;;;10096197;28;20048;-64
2023/11/13 11:21:12;;;;;;;5.07;1.30;;;13.40;99.90;;;;;;10096414;28;20028;-65
2023/11/13 11:26:03;;;;;;;4.75;0.95;;;13.50;99.90;;;;;;10102065;28;20057;-69
2023/11/13 11:30:53;;;;;;;4.78;1.10;;;13.60;99.90;;;;;;10098234;28;20045;-66
2023/11/13 11:35:45;;;;;;;3.20;1.00;;;13.60;99.90;;;;;;10094674;28;20052;-63
2023/11/13 11:40:36;;;;;;;2.63;1.15;;;13.60;99.90;;;;;;10093733;28;20036;-63
2023/11/13 11:45:26;;;;;;;2.72;1.15;;;13.60;99.90;;;;;;10095559;28;20048;-65
2023/11/13 11:50:17;;;;;;;2.88;1.20;;;13.70;99.90;;;;;;10098034;28;20033;-63
2023/11/13 11:55:12;;;;;;;2.80;1.40;;;13.80;99.90;;;;;;10100295;28;20048;-63
2023/11/13 12:00:04;;;;;;;4.13;1.48;;;13.80;99.90;;;;;;10099605;28;20044;-63
2023/11/13 12:04:59;;;;;;;8.00;1.45;;;13.80;99.90;;;;;;10098730;28;20060;-63
2023/11/13 12:09:50;;;;;;;3.47;1.37;;;13.90;99.90;;;;;;10095156;28;20037;-63
2023/11/13 12:14:41;;;;;;;3.75;1.80;;;14.00;99.90;;;;;;10100433;28;20507;-63
2023/11/13 12:19:32;;;;;;;1.58;0.93;;;14.00;99.90;;;;;;10099449;28;20036;-64
2023/11/13 12:24:22;;;;;;;3.60;1.77;;;14.00;99.90;;;;;;10100143;28;20029;-65
2023/11/13 12:29:22;;;;;;;3.50;1.58;;;14.10;99.90;;;;;;10100237;28;20031;-64
2023/11/13 12:34:16;;;;;;;3.03;1.27;;;14.10;99.90;;;;;;10099452;28;20107;-64
2023/11/13 12:39:07;;;;;;;6.00;2.78;;;14.20;99.90;;;;;;10099909;28;20055;-65
2023/11/13 12:43:57;;;;;;;3.03;1.60;;;14.20;99.90;;;;;;10097074;28;20040;-64
2023/11/13 12:48:49;;;;;;;3.47;1.23;;;14.20;99.90;;;;;;10099177;28;20147;-64
2023/11/13 12:53:47;;;;;;;3.50;1.33;;;14.30;99.90;;;;;;10097629;28;20029;-63
2023/11/13 12:58:39;;;;;;;3.30;1.10;;;14.30;99.90;;;;;;10098181;28;20025;-63
2023/11/13 13:03:30;;;;;;;2.05;1.85;;;14.30;99.90;;;;;;10098783;28;20115;-64
2023/11/13 13:08:23;;;;;;;3.25;1.83;;;14.30;99.90;;;;;;10088931;28;20618;-66
2023/11/13 13:13:16;;;;;;;4.28;1.25;;;14.40;99.90;;;;;;10080183;28;20417;-64
2023/11/13 13:18:06;;;;;;;3.90;1.45;;;14.30;99.90;;;;;;10088213;28;20100;-63
2023/11/13 13:22:57;;;;;;;2.85;1.23;;;14.30;99.90;;;;;;10092429;28;20525;-64
2023/11/13 13:27:48;;;;;;;1.67;1.00;;;14.30;99.90;;;;;;10088230;28;20031;-70
2023/11/13 13:32:38;;;;;;;3.20;0.93;;;14.30;99.90;;;;;;10089743;28;20429;-64
2023/11/13 13:37:29;;;;;;;2.97;0.85;;;14.30;99.90;;;;;;10090123;28;20116;-66
2023/11/13 13:42:21;;;;;;;1.02;0.73;;;14.30;99.90;;;;;;10097978;28;20106;-69
2023/11/13 13:47:12;;;;;;;1.38;0.80;;;14.40;99.90;;;;;;10097304;28;20063;-66
2023/11/13 13:52:04;;;;;;;1.13;0.80;;;14.50;99.90;;;;;;10090690;28;20093;-66
2023/11/13 13:56:54;;;;;;;1.80;0.70;;;14.60;99.90;;;;;;10094306;28;20029;-73
2023/11/13 14:01:45;;;;;;;1.40;1.15;;;14.70;99.90;;;;;;10096393;28;20043;-69
2023/11/13 14:06:36;;;;;;;1.30;0.75;;;14.80;99.90;;;;;;10097200;28;20036;-65
2023/11/13 14:11:27;;;;;;;0.85;0.80;;;14.80;99.90;;;;;;10095465;28;20032;-65
2023/11/13 14:16:18;;;;;;;1.00;0.60;;;14.90;99.90;;;;;;10090673;28;20051;-64
2023/11/13 14:21:12;;;;;;;0.85;0.50;;;15.10;99.90;;;;;;10095629;28;20055;-63
2023/11/13 14:26:03;;;;;;;0.93;0.50;;;15.10;99.90;;;;;;10095811;28;20056;-71
2023/11/13 14:30:55;;;;;;;1.95;0.90;;;15.00;99.90;;;;;;10095369;28;20430;-69
2023/11/13 14:35:45;;;;;;;1.05;0.95;;;14.90;99.90;;;;;;10095095;28;20048;-65
2023/11/13 14:40:36;;;;;;;1.00;0.65;;;15.00;99.90;;;;;;10076516;28;20487;-68
2023/11/13 14:45:26;;;;;;;1.17;0.85;;;15.00;99.90;;;;;;10092028;28;20618;-69
2023/11/13 14:50:20;;;;;;;2.45;0.70;;;14.90;99.90;;;;;;10094782;28;20058;-64
2023/11/13 14:55:11;;;;;;;1.73;0.80;;;15.10;99.90;;;;;;10094720;28;20041;-66
2023/11/13 15:00:05;;;;;;;1.10;0.50;;;15.10;99.90;;;;;;10094411;28;20025;-68
2023/11/13 15:04:56;;;;;;;3.05;0.70;;;15.10;99.90;;;;;;10090630;28;20036;-66
2023/11/13 15:09:47;;;;;;;1.17;0.55;;;15.10;99.90;;;;;;10091458;28;20029;-70
2023/11/13 15:14:39;;;;;;;1.25;0.65;;;15.20;99.90;;;;;;10090198;28;20434;-64
2023/11/13 15:19:30;;;;;;;2.20;0.70;;;15.20;99.90;;;;;;10094852;28;20032;-66
2023/11/13 15:24:21;;;;;;;3.03;0.80;;;15.20;99.90;;;;;;10094613;28;20025;-64
2023/11/13 15:29:12;;;;;;;1.52;0.70;;;15.20;99.90;;;;;;10094534;28;20048;-63
2023/11/13 15:34:02;;;;;;;3.60;0.73;;;15.20;99.90;;;;;;10093865;28;20052;-63
2023/11/13 15:38:55;;;;;;;1.00;0.68;;;15.20;99.90;;;;;;10093966;28;20033;-62
2023/11/13 15:43:46;;;;;;;1.77;0.70;;;15.10;99.90;;;;;;10093526;28;20060;-62
2023/11/13 15:48:38;;;;;;;3.08;1.05;;;15.00;99.90;;;;;;10093715;28;20617;-63
2023/11/13 15:53:29;;;;;;;2.78;0.82;;;14.90;99.90;;;;;;10095488;28;20119;-63
2023/11/13 15:58:20;;;;;;;1.58;1.08;;;14.90;99.90;;;;;;10098576;28;20048;-62
2023/11/13 16:03:10;;;;;;;1.35;0.80;;;14.90;99.90;;;;;;10093478;28;20083;-62
2023/11/13 16:08:01;;;;;;;1.20;1.10;;;14.80;99.90;;;;;;10099899;28;20055;-64
2023/11/13 16:12:52;;;;;;;1.48;1.30;;;14.80;99.90;;;;;;10100602;28;20029;-65
2023/11/13 16:17:42;;;;;;;1.73;0.65;;;14.80;99.90;;;;;;10089979;28;20040;-64
2023/11/13 16:22:33;;;;;;;1.10;0.80;;;14.80;99.90;;;;;;10096482;28;20053;-64
2023/11/13 16:27:23;;;;;;;1.98;0.70;;;14.80;99.90;;;;;;10100423;28;20028;-64
2023/11/13 16:32:14;;;;;;;1.88;0.80;;;14.80;99.90;;;;;;10100224;28;20379;-65
2023/11/13 16:37:08;;;;;;;2.00;1.23;;;14.90;99.90;;;;;;10099896;28;20597;-64
2023/11/13 16:41:59;;;;;;;1.52;0.93;;;14.90;99.90;;;;;;10078781;28;20025;-63
2023/11/13 16:46:49;;;;;;;1.60;0.82;;;14.90;99.90;;;;;;10099842;28;20029;-64
2023/11/13 16:51:40;;;;;;;1.95;0.55;;;15.00;99.90;;;;;;10098033;28;20539;-64
2023/11/13 16:56:30;;;;;;;2.75;0.63;;;15.10;99.90;;;;;;10097183;28;20043;-64
2023/11/13 17:01:21;;;;;;;3.30;0.65;;;15.20;99.90;;;;;;10098211;28;20033;-64
2023/11/13 17:06:12;;;;;;;0.47;0.30;;;15.30;99.90;;;;;;10097768;28;20415;-65
2023/11/13 17:11:07;;;;;;;2.40;0.68;;;15.30;99.90;;;;;;10098687;28;20025;-65
2023/11/13 17:15:57;;;;;;;1.00;0.52;;;15.40;99.90;;;;;;10099057;28;20048;-64
2023/11/13 17:20:53;;;;;;;0.73;0.40;;;15.50;99.90;;;;;;10095157;28;20025;-63
2023/11/13 17:25:44;;;;;;;3.05;0.52;;;15.50;99.90;;;;;;10097545;28;20034;-63
2023/11/13 17:30:35;;;;;;;0.57;0.50;;;15.50;99.90;;;;;;10078811;28;20052;-63
2023/11/13 17:35:26;;;;;;;1.48;0.40;;;15.50;99.90;;;;;;10096803;28;20048;-66
2023/11/13 17:40:18;;;;;;;0.85;0.55;;;15.40;99.90;;;;;;10096039;28;20136;-63
2023/11/13 17:45:09;;;;;;;0.73;0.45;;;15.40;99.90;;;;;;10092814;28;20027;-63
2023/11/13 17:50:00;;;;;;;2.00;0.70;;;15.40;99.90;;;;;;10095823;28;20029;-63
2023/11/13 17:54:51;;;;;;;1.35;0.60;;;15.40;99.90;;;;;;10085923;28;20045;-63
2023/11/13 17:59:41;;;;;;;3.80;0.60;;;15.50;99.90;;;;;;10083120;28;20032;-63
2023/11/13 18:04:32;;;;;;;2.53;0.90;;;15.50;99.90;;;;;;10100147;28;20099;-64
2023/11/13 18:09:27;;;;;;;0.73;0.50;;;15.50;99.90;;;;;;10096066;28;20643;-63
2023/11/13 18:14:18;;;;;;;2.55;0.60;;;15.50;99.90;;;;;;10093792;28;20041;-63
2023/11/13 18:19:10;;;;;;;0.82;0.40;;;15.50;99.90;;;;;;10091719;28;20125;-62
2023/11/13 18:24:02;;;;;;;1.67;0.57;;;15.50;99.90;;;;;;10096189;28;20116;-63
2023/11/13 18:28:52;;;;;;;0.60;0.45;;;15.60;99.90;;;;;;10096007;28;20119;-63
2023/11/13 18:33:44;;;;;;;0.98;0.50;;;15.50;99.90;;;;;;10078236;28;20044;-69
2023/11/13 18:38:34;;;;;;;1.45;0.40;;;15.60;99.90;;;;;;10095361;28;20025;-62
2023/11/13 18:43:25;;;;;;;2.17;1.02;;;15.60;99.90;;;;;;10093055;28;20430;-64
2023/11/13 18:48:16;;;;;;;0.70;0.60;;;15.70;99.90;;;;;;10095066;28;20025;-64
2023/11/13 18:53:08;;;;;;;0.80;0.57;;;15.60;99.90;;;;;;10093731;28;20032;-63
2023/11/13 18:58:00;;;;;;;0.57;0.40;;;15.70;99.90;;;;;;10092427;28;20420;-63
2023/11/13 19:02:50;;;;;;;1.40;0.52;;;15.70;99.90;;;;;;10075951;28;20025;-63
2023/11/13 19:07:41;;;;;;;0.50;0.40;;;15.70;99.90;;;;;;10094264;28;20104;-64
2023/11/13 19:12:32;;;;;;;1.85;0.30;;;15.70;99.90;;;;;;10094719;28;20064;-62
2023/11/13 19:17:23;;;;;;;1.35;0.63;;;15.70;99.90;;;;;;10091315;28;20621;-63
2023/11/13 19:22:15;;;;;;;0.77;0.40;;;15.70;99.90;;;;;;10094166;28;20029;-62
2023/11/13 19:27:06;;;;;;;1.40;0.90;;;15.70;99.90;;;;;;10097412;28;20113;-64
2023/11/13 19:31:59;;;;;;;1.08;0.52;;;15.70;99.90;;;;;;10099193;28;20028;-64
2023/11/13 19:36:51;;;;;;;2.58;0.50;;;15.70;99.90;;;;;;10101801;28;20064;-64
2023/11/13 19:41:43;;;;;;;1.40;0.50;;;15.70;99.90;;;;;;10101732;28;20379;-65
2023/11/13 19:46:34;;;;;;;2.38;0.77;;;15.80;99.90;;;;;;10101939;28;20035;-63
2023/11/13 19:51:24;;;;;;;0.93;0.60;;;15.80;99.90;;;;;;10099252;28;20029;-62
2023/11/13 19:56:15;;;;;;;0.50;0.40;;;15.80;99.90;;;;;;10101012;28;20124;-62
2023/11/13 20:01:06;;;;;;;1.70;0.77;;;15.80;99.90;;;;;;10098364;28;20375;-64
2023/11/13 20:05:56;;;;;;;1.50;0.73;;;15.80;99.90;;;;;;10100572;28;20028;-64
2023/11/13 20:10:47;;;;;;;0.60;0.57;;;15.80;99.90;;;;;;10101866;28;20017;-64
2023/11/13 20:15:37;;;;;;;1.83;0.98;;;15.80;99.90;;;;;;10095680;28;20049;-64
2023/11/13 20:20:28;;;;;;;0.80;0.45;;;15.80;99.90;;;;;;10100116;28;20024;-63
2023/11/13 20:25:20;;;;;;;1.38;0.57;;;15.80;99.90;;;;;;10097130;28;20657;-63
2023/11/13 20:30:11;;;;;;;0.90;0.75;;;15.80;99.90;;;;;;10098471;28;20028;-63
2023/11/13 20:35:02;;;;;;;0.75;0.60;;;15.80;99.90;;;;;;10092381;28;20136;-63
2023/11/13 20:39:53;;;;;;;0.73;0.45;;;15.80;99.90;;;;;;10094099;28;20059;-67
2023/11/13 20:44:43;;;;;;;1.23;0.45;;;15.90;99.90;;;;;;10097471;28;20041;-66
2023/11/13 20:49:35;;;;;;;0.82;0.43;;;15.90;99.90;;;;;;10097704;28;20078;-65
2023/11/13 20:54:26;;;;;;;0.75;0.40;;;15.90;99.90;;;;;;10077230;28;20139;-67
2023/11/13 20:59:16;;;;;;;1.05;0.95;;;16.00;99.90;;;;;;10099004;28;20021;-67
2023/11/13 21:04:08;;;;;;;0.75;0.40;;;16.00;99.90;;;;;;10098540;28;20029;-64
2023/11/13 21:08:59;;;;;;;2.13;0.65;;;16.00;99.90;;;;;;10098730;28;20021;-64
2023/11/13 21:13:50;;;;;;;1.35;0.77;;;15.90;99.90;;;;;;10096887;28;20033;-69
2023/11/13 21:18:40;;;;;;;0.65;0.45;;;15.90;99.90;;;;;;10088272;28;20040;-65
2023/11/13 21:23:32;;;;;;;2.05;0.73;;;15.90;99.90;;;;;;10074431;28;20029;-66
2023/11/13 21:28:22;;;;;;;2.70;0.70;;;15.90;99.90;;;;;;10062835;28;20032;-71
2023/11/13 21:33:13;;;;;;;0.30;0.28;;;15.90;99.90;;;;;;10070010;28;20053;-68
2023/11/13 21:38:04;;;;;;;0.75;0.50;;;15.90;99.90;;;;;;10075838;28;20033;-69
2023/11/13 21:42:54;;;;;;;1.85;0.40;;;15.90;99.90;;;;;;10079869;28;20108;-71
2023/11/13 21:47:45;;;;;;;1.08;0.63;;;15.80;99.90;;;;;;10097273;28;20108;-73
2023/11/13 21:52:37;;;;;;;0.20;0.15;;;15.90;99.90;;;;;;10095270;28;20536;-69
2023/11/13 21:57:28;;;;;;;0.45;0.17;;;15.90;99.90;;;;;;10078700;28;20095;-71
2023/11/13 22:02:21;;;;;;;0.55;0.28;;;15.90;99.90;;;;;;10085600;28;20497;-71
2023/11/13 22:07:12;;;;;;;2.17;0.60;;;16.00;99.90;;;;;;10071337;28;20036;-65
2023/11/13 22:12:03;;;;;;;1.40;1.13;;;15.90;99.90;;;;;;10069829;28;20485;-65
2023/11/13 22:16:54;;;;;;;1.63;0.68;;;15.80;99.90;;;;;;10084073;28;20032;-65
2023/11/13 22:21:46;;;;;;;3.83;0.70;;;15.50;99.90;;;;;;10095330;28;20033;-64
2023/11/13 22:26:37;;;;;;;1.30;0.60;;;15.50;99.90;;;;;;10096798;28;20029;-64
2023/11/13 22:31:27;;;;;;;1.85;0.85;;;15.40;99.90;;;;;;10097763;28;20099;-66
2023/11/13 22:36:18;;;;;;;2.80;0.85;;;15.30;99.90;;;;;;10095106;28;20076;-65
2023/11/13 22:41:11;;;;;;;2.53;0.60;;;15.30;99.90;;;;;;10093535;28;20102;-65
2023/11/13 22:46:01;;;;;;;4.72;0.75;;;15.30;99.90;;;;;;10094827;28;20082;-64
2023/11/13 22:50:52;;;;;;;1.85;0.77;;;15.30;99.90;;;;;;10087285;28;20114;-65
2023/11/13 22:55:42;;;;;;;3.22;0.80;;;15.30;99.90;;;;;;10089871;28;20073;-64
2023/11/13 23:00:36;;;;;;;5.82;1.00;;;15.30;99.90;;;;;;10094635;28;20044;-67
2023/11/13 23:05:27;;;;;;;3.35;1.02;;;15.30;99.90;;;;;;10092293;28;20478;-64
2023/11/13 23:10:18;;;;;;;2.47;1.60;;;15.30;99.90;;;;;;10076135;28;20021;-65
2023/11/13 23:15:09;;;;;;;3.63;1.73;;;15.30;99.90;;;;;;10094286;28;20072;-65
2023/11/13 23:19:59;;;;;;;2.55;0.70;;;15.30;99.90;;;;;;10094231;28;21378;-67
2023/11/13 23:24:50;;;;;;;3.75;1.05;;;15.30;99.90;;;;;;10094525;28;20033;-72
2023/11/13 23:29:41;;;;;;;4.25;1.02;;;15.30;99.90;;;;;;10092533;28;20406;-70
2023/11/13 23:34:32;;;;;;;5.10;0.93;;;15.20;99.90;;;;;;10092857;28;20052;-67
2023/11/13 23:39:22;;;;;;;2.78;1.13;;;15.10;99.90;;;;;;10093756;28;20576;-65
2023/11/13 23:44:13;;;;;;;5.50;0.90;;;15.10;99.90;;;;;;10094137;28;20058;-66
2023/11/13 23:49:04;;;;;;;2.92;0.65;;;15.20;99.90;;;;;;10093618;28;20025;-64
2023/11/13 23:53:54;;;;;;;1.73;0.80;;;15.20;99.90;;;;;;10092445;28;20082;-68
2023/11/13 23:58:45;;;;;;;3.28;0.90;;;15.20;99.90;;;;;;10091274;28;20171;-68
